Portada
METAR-TAF:

METAR-TAF

Aeropuertos :

Aeropuerto Juan Mendoza

Oruro, Bolivia

latitud: 17-58S, longitud: 067-04W, altitud: 3072 m

Observación

El informe se hizo hace 6 horas y 23 minutos, a las 18:00 UTC
Viento 4 kt del norte
Temperatura 21°C
Humedad 40%
Presión 1033 hPa
Visibilidad 10 km o más
Nubes dispersas a una altura de 2000 ft

METAR: SLOR 241800Z 01004KT 9999 SCT020 21/07 Q1033

Hora: 20:23 (00:23 UTC)


TAF: falta

Observaciones y pronósticos meteorológicos de más de 4000 aeropuertos (mensajes METAR y TAF).

Los puntos amarillos y rojos representan las estaciones disponibles.

Ponga el ratón en el punto deseado para ver el nombre de la estación.

Haga clic para ver las observaciones y los pronósticos meteorológicos.

Para cambiar el mapa : haga clic en los botones verdes con una cruz de color negro para hacer un zoom, en el botón verde con un guión para alejar o en las flechas verdes para mapas adyacentes.


METAR-TAF: